Rolla, Kansas
Current Conditions -  °F | °C
As of 6:53 PM on Friday 24 Oct 2014 (Local Time) from KGUY Reporting Station
Clear Clear  
Wind Chill: 76°   Ceiling: Unl
Heat Index: 76°   Visibility: 10mi
Dew Point: 42°   Wind: 6mph
Humidity: 30%   Direction: 190°S
Pressure: 30.04"   Gusts: NA
Location:  37.12°N, 101.63°W
Report Text: KGUY 242353Z AUTO 19005KT 10SM CLR 24/06 A3004 RMK AO2 SLP141 T02440056 10322 20244 53002
Loading
Personal Weather Stations






























Interactive Weather Map
Tropical Storm Tracking
New forecast layout! Learn more

10-Day Weather Forecast

Advertisements
Track Severe Weather on mobile